createdAt,value
2023-01-10T00:02:02.997Z,2.30
2023-01-10T00:04:31.173Z,3.53
2023-01-10T00:06:59.335Z,1.53
2023-01-10T00:09:27.434Z,1.63
2023-01-10T00:12:14.431Z,3.43
2023-01-10T00:14:42.498Z,2.13
2023-01-10T00:17:10.618Z,1.73
2023-01-10T00:19:38.760Z,2.00
2023-01-10T00:22:14.575Z,3.27
2023-01-10T00:24:44.063Z,4.57
2023-01-10T00:27:17.757Z,2.87
2023-01-10T00:29:46.854Z,1.93
2023-01-10T00:32:14.991Z,3.10
2023-01-10T00:34:43.093Z,2.87
2023-01-10T00:37:11.287Z,2.43
2023-01-10T00:39:39.455Z,2.90
2023-01-10T00:42:25.384Z,2.20
2023-01-10T00:44:54.849Z,2.53
2023-01-10T00:47:23.111Z,4.43
2023-01-10T00:49:51.188Z,2.80
2023-01-10T00:52:19.346Z,2.47
2023-01-10T00:54:47.443Z,4.23
2023-01-10T00:57:15.668Z,3.53
2023-01-10T00:59:43.769Z,1.80
2023-01-10T01:02:13.491Z,3.17
2023-01-10T01:04:41.666Z,4.10
2023-01-10T01:07:09.813Z,2.60
2023-01-10T01:09:58.276Z,1.73
2023-01-10T01:12:26.494Z,3.23
2023-01-10T01:14:54.641Z,1.87
2023-01-10T01:17:24.104Z,2.90
2023-01-10T01:19:52.173Z,1.67
2023-01-10T01:22:21.050Z,3.53
2023-01-10T01:24:49.259Z,2.20
2023-01-10T01:27:17.505Z,3.40
2023-01-10T01:29:45.608Z,2.40
2023-01-10T01:32:13.737Z,3.33
2023-01-10T01:34:43.261Z,2.00
2023-01-10T01:37:11.443Z,1.93
2023-01-10T01:39:39.603Z,1.93
2023-01-10T01:42:08.009Z,2.07
2023-01-10T01:44:40.421Z,2.90
2023-01-10T01:47:18.568Z,2.20
2023-01-10T01:49:48.250Z,2.63
2023-01-10T01:52:27.664Z,2.03
2023-01-10T01:55:00.147Z,2.67
2023-01-10T01:57:31.838Z,2.03
2023-01-10T02:00:02.934Z,1.60
2023-01-10T02:03:01.203Z,1.77
2023-01-10T02:05:35.058Z,1.50
2023-01-10T02:08:03.798Z,1.47
2023-01-10T02:10:41.827Z,2.43
2023-01-10T02:13:14.970Z,1.33
2023-01-10T02:15:43.260Z,1.80
2023-01-10T02:18:12.096Z,1.70
2023-01-10T02:21:04.685Z,2.27
2023-01-10T02:24:19.120Z,1.50
2023-01-10T02:27:19.795Z,1.83
2023-01-10T02:30:42.239Z,2.57
2023-01-10T02:33:22.742Z,2.47
2023-01-10T02:36:17.310Z,1.63
2023-01-10T02:38:59.710Z,1.93
2023-01-10T02:41:39.347Z,1.70
2023-01-10T02:44:19.802Z,3.73
2023-01-10T02:46:50.217Z,1.80
2023-01-10T02:49:20.328Z,1.67
2023-01-10T02:51:48.475Z,3.20
2023-01-10T02:54:21.627Z,2.30
2023-01-10T02:57:46.699Z,1.93
2023-01-10T03:00:39.687Z,2.30
2023-01-10T03:03:27.374Z,3.13
2023-01-10T03:06:17.700Z,4.87
2023-01-10T03:08:56.606Z,2.27
2023-01-10T03:11:42.212Z,2.97
2023-01-10T03:14:19.630Z,2.50
2023-01-10T03:16:55.830Z,4.03
2023-01-10T03:19:30.035Z,3.13
2023-01-10T03:22:03.616Z,2.40
2023-01-10T03:24:40.563Z,3.37
2023-01-10T03:27:15.741Z,2.40
2023-01-10T03:29:52.561Z,3.27
2023-01-10T03:32:26.918Z,2.40
2023-01-10T03:34:56.160Z,2.40
2023-01-10T03:37:37.529Z,3.77
2023-01-10T03:40:18.783Z,3.33
2023-01-10T03:43:15.479Z,2.90
2023-01-10T03:45:50.532Z,3.97
2023-01-10T03:48:22.865Z,3.07
2023-01-10T03:50:52.941Z,4.87
2023-01-10T03:53:22.570Z,3.77
2023-01-10T03:55:50.753Z,2.87
2023-01-10T03:58:21.790Z,2.57
2023-01-10T04:00:50.583Z,3.83
2023-01-10T04:03:18.733Z,3.27
2023-01-10T04:05:46.930Z,2.67
2023-01-10T04:08:15.227Z,3.27
2023-01-10T04:10:47.624Z,5.53
2023-01-10T04:13:15.900Z,3.03
2023-01-10T04:15:44.134Z,3.22
2023-01-10T04:18:13.004Z,3.87
2023-01-10T04:20:41.068Z,3.00
2023-01-10T04:23:09.189Z,3.07
2023-01-10T04:25:37.343Z,3.50
2023-01-10T04:28:07.197Z,4.40
2023-01-10T04:30:35.373Z,3.90
2023-01-10T04:33:03.485Z,3.17
2023-01-10T04:35:31.617Z,3.60
2023-01-10T04:37:59.743Z,3.27
2023-01-10T04:40:27.863Z,6.07
2023-01-10T04:42:56.024Z,2.83
2023-01-10T04:45:25.532Z,3.50
2023-01-10T04:47:56.171Z,4.83
2023-01-10T04:50:24.888Z,3.20
2023-01-10T04:52:53.045Z,3.43
2023-01-10T04:55:21.561Z,3.10
2023-01-10T04:57:49.705Z,3.30
2023-01-10T05:00:18.895Z,3.77
2023-01-10T05:02:48.438Z,4.20
2023-01-10T05:05:16.916Z,3.80
2023-01-10T05:07:47.998Z,4.00
2023-01-10T05:10:16.344Z,5.07
2023-01-10T05:12:44.706Z,5.40
2023-01-10T05:15:13.122Z,3.33
2023-01-10T05:17:41.533Z,4.83
2023-01-10T05:20:13.415Z,4.77
2023-01-10T05:22:41.878Z,3.90
2023-01-10T05:25:10.923Z,4.80
2023-01-10T05:27:42.978Z,5.27
2023-01-10T05:30:13.625Z,4.70
2023-01-10T05:32:41.953Z,5.93
2023-01-10T05:35:12.062Z,6.37
2023-01-10T05:37:40.936Z,4.80
2023-01-10T05:40:12.295Z,5.50
2023-01-10T05:42:40.748Z,4.20
2023-01-10T05:45:10.577Z,4.63
2023-01-10T05:47:38.820Z,6.10
2023-01-10T05:50:08.259Z,4.97
2023-01-10T05:52:37.743Z,6.93
2023-01-10T05:55:06.781Z,4.27
2023-01-10T05:57:35.011Z,6.93
2023-01-10T06:00:05.133Z,4.47
2023-01-10T06:02:39.903Z,5.43
2023-01-10T06:05:09.035Z,5.43
2023-01-10T06:07:38.633Z,5.57
2023-01-10T06:10:07.877Z,4.97
2023-01-10T06:12:36.027Z,5.43
2023-01-10T06:15:04.821Z,4.90
2023-01-10T06:17:33.012Z,4.33
2023-01-10T06:20:01.158Z,6.13
2023-01-10T06:22:29.414Z,7.87
2023-01-10T06:25:00.466Z,4.03
2023-01-10T06:27:29.739Z,6.23
2023-01-10T06:29:59.543Z,4.13
2023-01-10T06:32:27.760Z,5.57
2023-01-10T06:34:55.894Z,4.70
2023-01-10T06:37:24.045Z,6.77
2023-01-10T06:39:52.161Z,6.13
2023-01-10T06:42:21.615Z,4.33
2023-01-10T06:44:49.694Z,5.77
2023-01-10T06:47:17.873Z,6.80
2023-01-10T06:49:45.965Z,7.03
2023-01-10T06:52:14.089Z,8.10
2023-01-10T06:54:42.301Z,5.40
2023-01-10T06:57:10.519Z,4.53
2023-01-10T06:59:39.951Z,7.67
2023-01-10T07:02:08.392Z,3.10
2023-01-10T07:04:36.665Z,8.63
2023-01-10T07:07:04.818Z,5.33
2023-01-10T07:09:33.405Z,6.37
2023-01-10T07:12:01.705Z,7.03
2023-01-10T07:14:29.914Z,3.47
2023-01-10T07:16:59.353Z,4.17
2023-01-10T07:19:27.437Z,3.90
2023-01-10T07:21:55.684Z,5.53
2023-01-10T07:24:23.880Z,3.53
2023-01-10T07:26:52.022Z,6.93
2023-01-10T07:29:20.185Z,6.37
2023-01-10T07:31:48.325Z,3.93
2023-01-10T07:34:18.061Z,5.97
2023-01-10T07:36:46.193Z,5.80
2023-01-10T07:39:14.354Z,5.63
2023-01-10T07:41:42.425Z,4.90
2023-01-10T07:44:10.987Z,9.52
2023-01-10T07:46:39.131Z,4.77
2023-01-10T07:49:07.297Z,6.37
2023-01-10T07:51:36.917Z,5.73
2023-01-10T07:54:05.838Z,5.07
2023-01-10T07:56:33.992Z,9.70
2023-01-10T07:59:02.199Z,6.67
2023-01-10T08:01:30.557Z,4.47
2023-01-10T08:03:59.573Z,8.23
2023-01-10T08:06:27.650Z,2.97
2023-01-10T08:08:57.172Z,6.20
2023-01-10T08:11:25.340Z,4.03
2023-01-10T08:13:53.638Z,4.40
2023-01-10T08:16:21.885Z,7.30
2023-01-10T08:18:50.042Z,7.17
2023-01-10T08:21:18.168Z,6.93
2023-01-10T08:23:46.281Z,6.37
2023-01-10T08:26:15.792Z,4.43
2023-01-10T08:28:43.901Z,2.03
2023-01-10T08:31:12.332Z,2.83
2023-01-10T08:33:41.856Z,6.43
2023-01-10T08:36:17.781Z,3.30
2023-01-10T08:38:46.338Z,3.37
2023-01-10T08:41:16.018Z,6.47
2023-01-10T08:43:44.150Z,5.53
2023-01-10T08:46:12.351Z,3.53
2023-01-10T08:48:40.581Z,5.23
2023-01-10T08:51:10.682Z,9.23
2023-01-10T08:53:41.028Z,4.87
2023-01-10T08:56:10.228Z,9.37
2023-01-10T08:58:39.933Z,12.97
2023-01-10T09:01:11.785Z,20.90
2023-01-10T09:03:40.481Z,8.67
2023-01-10T09:06:09.417Z,3.87
2023-01-10T09:08:38.365Z,7.17
2023-01-10T09:11:07.822Z,5.57
2023-01-10T09:13:36.026Z,8.77
2023-01-10T09:16:06.279Z,5.87
2023-01-10T09:18:34.869Z,4.60
2023-01-10T09:21:03.848Z,6.47
2023-01-10T09:23:31.959Z,8.43
2023-01-10T09:26:02.841Z,7.00
2023-01-10T09:28:30.991Z,7.43
2023-01-10T09:31:00.951Z,4.90
2023-01-10T09:33:45.314Z,4.27
2023-01-10T09:36:15.473Z,5.13
2023-01-10T09:38:43.828Z,4.93
2023-01-10T09:41:48.911Z,6.23
2023-01-10T09:44:26.321Z,9.10
2023-01-10T09:47:08.481Z,10.33
2023-01-10T09:49:57.998Z,8.67
2023-01-10T09:52:34.083Z,7.07
2023-01-10T09:55:19.240Z,7.07
2023-01-10T09:57:48.488Z,5.53
2023-01-10T10:00:22.730Z,7.40
2023-01-10T10:02:53.644Z,7.10
2023-01-10T10:05:26.630Z,8.30
2023-01-10T10:07:58.403Z,15.67
2023-01-10T10:10:32.538Z,10.07
2023-01-10T10:13:23.212Z,9.97
2023-01-10T10:16:04.487Z,6.75
2023-01-10T10:18:46.699Z,7.47
2023-01-10T10:21:29.548Z,6.37
2023-01-10T10:24:31.792Z,7.10
2023-01-10T10:27:08.516Z,11.07
2023-01-10T10:30:26.416Z,7.65
2023-01-10T10:33:26.041Z,7.70
2023-01-10T10:36:03.486Z,7.00
2023-01-10T10:38:39.504Z,8.10
2023-01-10T10:41:27.217Z,8.67
2023-01-10T10:44:00.749Z,4.40
2023-01-10T10:46:28.889Z,7.80
2023-01-10T10:49:01.737Z,8.07
2023-01-10T10:51:43.360Z,5.43
2023-01-10T10:54:15.012Z,5.07
2023-01-10T10:56:44.757Z,12.07
2023-01-10T10:59:17.942Z,5.50
2023-01-10T11:01:48.850Z,6.17
2023-01-10T11:04:23.114Z,5.77
2023-01-10T11:06:52.811Z,9.10
2023-01-10T11:09:29.395Z,8.50
2023-01-10T11:11:59.269Z,4.03
2023-01-10T11:14:47.063Z,8.63
2023-01-10T11:17:26.376Z,5.87
2023-01-10T11:19:58.759Z,5.43
2023-01-10T11:22:29.287Z,10.33
2023-01-10T11:25:02.194Z,7.80
2023-01-10T11:27:33.714Z,9.67
2023-01-10T11:30:08.537Z,9.27
2023-01-10T11:32:49.192Z,5.87
2023-01-10T11:35:24.683Z,9.30
2023-01-10T11:38:02.264Z,6.10
2023-01-10T11:40:33.741Z,7.20
2023-01-10T11:43:26.387Z,6.10
2023-01-10T11:45:58.037Z,6.73
2023-01-10T11:48:56.291Z,4.47
2023-01-10T11:51:26.484Z,7.60
2023-01-10T11:54:00.763Z,3.73
2023-01-10T11:56:35.087Z,6.73
2023-01-10T11:59:12.517Z,5.67
2023-01-10T12:01:44.713Z,7.50
2023-01-10T12:04:16.956Z,7.57
2023-01-10T12:06:48.081Z,7.63
2023-01-10T12:09:42.372Z,5.85
2023-01-10T12:12:25.461Z,8.80
2023-01-10T12:14:56.043Z,5.53
2023-01-10T12:17:28.480Z,6.80
2023-01-10T12:20:01.373Z,8.50
2023-01-10T12:22:34.742Z,12.02
2023-01-10T12:25:16.262Z,8.27
2023-01-10T12:27:50.062Z,9.50
2023-01-10T12:30:29.837Z,9.73
2023-01-10T12:33:03.389Z,6.55
2023-01-10T12:35:42.000Z,7.43
2023-01-10T12:38:40.444Z,14.80
2023-01-10T12:41:33.793Z,9.63
2023-01-10T12:44:14.756Z,9.00
2023-01-10T12:47:09.180Z,6.77
2023-01-10T12:49:46.792Z,6.72
2023-01-10T12:52:23.435Z,5.77
2023-01-10T12:54:51.950Z,9.50
2023-01-10T12:57:30.536Z,8.85
2023-01-10T13:00:04.735Z,8.13
2023-01-10T13:02:43.973Z,9.75
2023-01-10T13:05:21.052Z,5.83
2023-01-10T13:07:53.415Z,5.07
2023-01-10T13:10:27.284Z,8.18
2023-01-10T13:13:02.197Z,10.18
2023-01-10T13:15:39.323Z,5.53
2023-01-10T13:18:24.012Z,8.27
2023-01-10T13:21:08.683Z,7.70
2023-01-10T13:23:46.669Z,4.47
2023-01-10T13:26:14.939Z,9.50
2023-01-10T13:28:57.066Z,6.50
2023-01-10T13:31:31.947Z,6.78
2023-01-10T13:34:06.059Z,9.20
2023-01-10T13:36:40.863Z,6.25
2023-01-10T13:39:24.482Z,5.13
2023-01-10T13:42:49.176Z,10.60
2023-01-10T13:45:27.403Z,7.47
2023-01-10T13:48:03.737Z,5.07
2023-01-10T13:51:14.302Z,5.30
2023-01-10T13:54:25.140Z,5.18
2023-01-10T13:56:53.352Z,11.10
2023-01-10T14:00:19.897Z,4.10
2023-01-10T14:02:48.109Z,8.50
2023-01-10T14:05:22.017Z,3.10
2023-01-10T14:07:53.783Z,4.60
2023-01-10T14:10:26.733Z,6.65
2023-01-10T14:12:59.516Z,8.23
2023-01-10T14:15:32.143Z,11.40
2023-01-10T14:18:04.209Z,5.28
2023-01-10T14:20:36.748Z,6.60
2023-01-10T14:23:09.393Z,10.27
2023-01-10T14:25:39.574Z,8.47
2023-01-10T14:28:22.816Z,5.78
2023-01-10T14:31:10.427Z,8.75
2023-01-10T14:33:41.780Z,6.00
2023-01-10T14:36:21.459Z,8.70
2023-01-10T14:38:56.807Z,10.43
2023-01-10T14:41:35.534Z,7.30
2023-01-10T14:44:11.950Z,7.85
2023-01-10T14:46:47.913Z,23.43
2023-01-10T14:49:25.142Z,13.87
2023-01-10T14:52:00.926Z,17.43
2023-01-10T14:54:30.297Z,16.30
2023-01-10T14:56:59.612Z,11.45
2023-01-10T14:59:30.689Z,8.13
2023-01-10T15:02:02.343Z,9.93
2023-01-10T15:04:33.808Z,8.55
2023-01-10T15:07:11.835Z,9.13
2023-01-10T15:09:40.209Z,16.50
2023-01-10T15:12:13.614Z,8.20
2023-01-10T15:14:42.076Z,7.10
2023-01-10T15:17:20.057Z,8.07
2023-01-10T15:19:53.146Z,8.47
2023-01-10T15:22:31.475Z,8.60
2023-01-10T15:25:02.504Z,5.70
2023-01-10T15:27:32.511Z,9.48
2023-01-10T15:30:01.810Z,4.93
2023-01-10T15:32:34.618Z,7.37
2023-01-10T15:35:04.105Z,6.57
2023-01-10T15:37:40.773Z,5.57
2023-01-10T15:40:26.496Z,5.70
2023-01-10T15:43:13.863Z,5.93
2023-01-10T15:45:42.883Z,4.03
2023-01-10T15:48:28.925Z,6.30
2023-01-10T15:51:03.495Z,8.07
2023-01-10T15:54:03.540Z,7.63
2023-01-10T15:56:37.799Z,6.53
2023-01-10T15:59:24.222Z,8.57
2023-01-10T16:01:57.903Z,8.20
2023-01-10T16:04:26.377Z,8.17
2023-01-10T16:07:07.456Z,4.63
2023-01-10T16:09:39.476Z,5.87
2023-01-10T16:12:37.154Z,5.30
2023-01-10T16:15:19.099Z,7.50
2023-01-10T16:17:49.458Z,9.70
2023-01-10T16:20:21.329Z,8.43
2023-01-10T16:22:51.015Z,5.87
2023-01-10T16:25:27.753Z,6.53
2023-01-10T16:27:56.797Z,5.87
2023-01-10T16:30:29.553Z,7.90
2023-01-10T16:32:58.479Z,11.53
2023-01-10T16:35:27.171Z,6.03
2023-01-10T16:37:58.406Z,9.87
2023-01-10T16:40:35.741Z,5.97
2023-01-10T16:43:19.150Z,5.27
2023-01-10T16:45:48.696Z,7.77
2023-01-10T16:48:21.876Z,10.17
2023-01-10T16:50:50.420Z,6.60
2023-01-10T16:53:21.594Z,6.20
2023-01-10T16:55:53.821Z,4.00
2023-01-10T16:58:22.343Z,6.90
2023-01-10T17:00:53.415Z,8.80
2023-01-10T17:03:25.363Z,6.13
2023-01-10T17:05:53.919Z,4.70
2023-01-10T17:08:24.891Z,4.57
2023-01-10T17:11:06.531Z,4.37
2023-01-10T17:13:39.947Z,4.50
2023-01-10T17:16:08.897Z,3.73
2023-01-10T17:18:39.377Z,10.53
2023-01-10T17:21:16.813Z,10.17
2023-01-10T17:23:45.006Z,11.40
2023-01-10T17:26:17.460Z,9.70
2023-01-10T17:28:46.567Z,11.43
2023-01-10T17:31:14.771Z,9.53
2023-01-10T17:33:42.882Z,8.40
2023-01-10T17:36:12.515Z,17.00
2023-01-10T17:38:42.914Z,11.00
2023-01-10T17:41:11.307Z,25.67
2023-01-10T17:43:41.353Z,13.23
2023-01-10T17:46:10.946Z,11.23
2023-01-10T17:48:40.018Z,12.90
2023-01-10T17:51:09.015Z,15.13
2023-01-10T17:53:37.376Z,12.23
2023-01-10T17:56:08.405Z,11.07
2023-01-10T17:58:36.892Z,13.03
2023-01-10T18:01:06.584Z,10.00
2023-01-10T18:03:35.507Z,12.83
2023-01-10T18:06:05.576Z,13.10
2023-01-10T18:08:33.870Z,9.00
2023-01-10T18:11:04.182Z,10.87
2023-01-10T18:13:32.458Z,10.67
2023-01-10T18:16:02.347Z,11.57
2023-01-10T18:18:32.277Z,7.73
2023-01-10T18:21:03.723Z,18.13
2023-01-10T18:23:33.169Z,10.23
2023-01-10T18:26:04.576Z,47.00
2023-01-10T18:28:42.322Z,22.13
2023-01-10T18:31:13.717Z,10.53
2023-01-10T18:33:43.501Z,10.10
2023-01-10T18:36:17.213Z,9.40
2023-01-10T18:38:45.996Z,9.20
2023-01-10T18:41:14.836Z,10.23
2023-01-10T18:43:44.419Z,12.30
2023-01-10T18:46:15.848Z,12.13
2023-01-10T18:48:45.910Z,13.23
2023-01-10T18:51:15.304Z,16.40
2023-01-10T18:53:44.443Z,18.77
2023-01-10T18:56:13.137Z,16.97
2023-01-10T18:58:42.979Z,14.13
2023-01-10T19:01:14.112Z,10.57
2023-01-10T19:03:43.258Z,13.57
2023-01-10T19:06:16.440Z,12.27
2023-01-10T19:08:45.933Z,11.63
2023-01-10T19:11:16.872Z,8.70
2023-01-10T19:13:46.635Z,15.23
2023-01-10T19:16:17.664Z,15.17
2023-01-10T19:18:50.414Z,10.83
2023-01-10T19:21:20.391Z,7.70
2023-01-10T19:23:51.192Z,9.13
2023-01-10T19:26:20.611Z,17.00
2023-01-10T19:28:48.986Z,12.07
2023-01-10T19:31:19.782Z,7.60
2023-01-10T19:33:48.226Z,10.00
2023-01-10T19:36:17.705Z,10.67
2023-01-10T19:38:48.069Z,9.53
2023-01-10T19:41:16.560Z,16.70
2023-01-10T19:43:44.748Z,13.67
2023-01-10T19:46:14.183Z,9.70
2023-01-10T19:48:42.389Z,10.23
2023-01-10T19:51:13.331Z,11.13
2023-01-10T19:53:45.474Z,8.43
2023-01-10T19:56:21.757Z,7.87
2023-01-10T19:58:50.954Z,9.97
2023-01-10T20:01:21.738Z,10.90
2023-01-10T20:03:50.226Z,14.93
2023-01-10T20:06:24.543Z,11.07
2023-01-10T20:08:54.967Z,10.10
2023-01-10T20:11:27.027Z,11.73
2023-01-10T20:13:56.197Z,10.17
2023-01-10T20:16:26.517Z,8.03
2023-01-10T20:18:54.725Z,11.83
2023-01-10T20:21:22.970Z,7.00
2023-01-10T20:23:51.299Z,9.33
2023-01-10T20:26:22.757Z,8.80
2023-01-10T20:28:52.382Z,9.87
2023-01-10T20:31:23.523Z,10.47
2023-01-10T20:33:52.241Z,8.40
2023-01-10T20:36:22.840Z,8.63
2023-01-10T20:38:52.106Z,6.33
2023-01-10T20:41:23.194Z,10.77
2023-01-10T20:43:54.042Z,7.83
2023-01-10T20:46:26.121Z,5.90
2023-01-10T20:48:56.937Z,7.20
2023-01-10T20:51:29.088Z,6.03
2023-01-10T20:53:57.474Z,4.93
2023-01-10T20:56:32.183Z,5.57
2023-01-10T20:59:02.023Z,5.77
2023-01-10T21:01:35.367Z,8.07
2023-01-10T21:04:05.460Z,5.87
2023-01-10T21:06:34.577Z,5.47
2023-01-10T21:09:03.894Z,6.20
2023-01-10T21:11:36.730Z,6.47
2023-01-10T21:14:14.085Z,7.67
2023-01-10T21:16:42.280Z,8.47
2023-01-10T21:19:13.471Z,8.87
2023-01-10T21:21:42.258Z,5.57
2023-01-10T21:24:11.426Z,8.30
2023-01-10T21:26:39.570Z,7.03
2023-01-10T21:29:07.928Z,6.17
2023-01-10T21:31:37.543Z,5.90
2023-01-10T21:34:05.679Z,5.77
2023-01-10T21:36:33.834Z,6.43
2023-01-10T21:39:01.997Z,6.53
2023-01-10T21:41:44.043Z,6.47
2023-01-10T21:44:12.342Z,7.73
2023-01-10T21:46:44.551Z,4.70
2023-01-10T21:49:13.152Z,9.67
2023-01-10T21:51:41.250Z,8.53
2023-01-10T21:54:09.466Z,11.63
2023-01-10T21:56:37.585Z,6.63
2023-01-10T21:59:05.743Z,10.10
2023-01-10T22:01:33.917Z,8.17
2023-01-10T22:04:03.872Z,7.90
2023-01-10T22:06:32.081Z,5.47
2023-01-10T22:09:00.205Z,6.93
2023-01-10T22:11:28.362Z,4.90
2023-01-10T22:13:57.140Z,4.07
2023-01-10T22:16:25.354Z,7.67
2023-01-10T22:18:53.559Z,7.30
2023-01-10T22:21:23.011Z,4.20
2023-01-10T22:23:51.091Z,4.87
2023-01-10T22:26:19.246Z,5.50
2023-01-10T22:28:47.562Z,5.80
2023-01-10T22:31:15.743Z,5.83
2023-01-10T22:33:43.881Z,5.27
2023-01-10T22:36:17.222Z,4.77
2023-01-10T22:38:49.038Z,4.90
2023-01-10T22:41:19.872Z,8.70
2023-01-10T22:43:48.933Z,5.57
2023-01-10T22:46:17.205Z,6.77
2023-01-10T22:48:45.972Z,4.20
2023-01-10T22:51:14.854Z,6.10
2023-01-10T22:53:43.501Z,4.00
2023-01-10T22:56:13.183Z,5.90
2023-01-10T22:58:47.659Z,4.97
2023-01-10T23:01:17.445Z,4.87
2023-01-10T23:03:46.595Z,5.07
2023-01-10T23:06:16.381Z,6.10
2023-01-10T23:08:45.899Z,2.83
2023-01-10T23:11:18.885Z,6.70
2023-01-10T23:13:48.135Z,3.23
2023-01-10T23:16:20.237Z,3.93
2023-01-10T23:18:49.256Z,6.33
2023-01-10T23:21:17.591Z,4.57
2023-01-10T23:23:45.685Z,6.27
2023-01-10T23:26:16.189Z,3.97
2023-01-10T23:28:48.277Z,4.57
2023-01-10T23:31:19.525Z,7.90
2023-01-10T23:33:48.592Z,3.30
2023-01-10T23:36:18.110Z,3.53
2023-01-10T23:38:46.272Z,3.93
2023-01-10T23:41:15.969Z,4.40
2023-01-10T23:43:44.248Z,6.17
2023-01-10T23:46:12.443Z,5.80
2023-01-10T23:48:40.849Z,5.33
2023-01-10T23:51:11.289Z,2.23
2023-01-10T23:53:39.544Z,9.97
2023-01-10T23:56:09.868Z,8.50
2023-01-10T23:58:40.039Z,4.57
